sensor_id;sensor_type;location;lat;lon;timestamp;noise_LAeq;noise_LA_min;noise_LA_max;noise_LA01;noise_LA95
45246;Laerm;31529;51.158;7.354;2023-05-16T00:00:16;40.42;36.24;52.80;;
45246;Laerm;31529;51.158;7.354;2023-05-16T00:00:47;42.12;38.51;50.95;;
45246;Laerm;31529;51.158;7.354;2023-05-16T00:01:18;40.93;36.50;52.12;;
45246;Laerm;31529;51.158;7.354;2023-05-16T00:01:50;41.66;38.00;51.32;;
45246;Laerm;31529;51.158;7.354;2023-05-16T00:02:24;40.13;36.75;54.22;;
45246;Laerm;31529;51.158;7.354;2023-05-16T00:02:55;40.50;35.66;55.08;;
45246;Laerm;31529;51.158;7.354;2023-05-16T00:03:27;39.47;35.96;49.08;;
45246;Laerm;31529;51.158;7.354;2023-05-16T00:03:58;39.98;35.34;56.12;;
45246;Laerm;31529;51.158;7.354;2023-05-16T00:04:29;39.80;35.34;53.04;;
45246;Laerm;31529;51.158;7.354;2023-05-16T00:05:00;40.16;35.66;48.53;;
45246;Laerm;31529;51.158;7.354;2023-05-16T00:05:31;38.81;34.20;45.93;;
45246;Laerm;31529;51.158;7.354;2023-05-16T00:06:02;40.49;34.61;48.96;;
45246;Laerm;31529;51.158;7.354;2023-05-16T00:06:34;42.75;36.50;52.25;;
45246;Laerm;31529;51.158;7.354;2023-05-16T00:07:06;39.09;33.74;49.88;;
45246;Laerm;31529;51.158;7.354;2023-05-16T00:07:37;41.05;36.24;52.87;;
45246;Laerm;31529;51.158;7.354;2023-05-16T00:08:08;40.18;35.96;52.04;;
45246;Laerm;31529;51.158;7.354;2023-05-16T00:08:39;42.96;39.25;54.76;;
45246;Laerm;31529;51.158;7.354;2023-05-16T00:09:11;42.82;38.82;59.05;;
45246;Laerm;31529;51.158;7.354;2023-05-16T00:09:42;44.07;38.97;63.27;;
45246;Laerm;31529;51.158;7.354;2023-05-16T00:10:13;45.42;39.64;65.94;;
45246;Laerm;31529;51.158;7.354;2023-05-16T00:10:44;43.62;39.38;65.54;;
45246;Laerm;31529;51.158;7.354;2023-05-16T00:11:16;58.22;40.00;70.38;;
45246;Laerm;31529;51.158;7.354;2023-05-16T00:11:47;49.26;38.97;66.50;;
45246;Laerm;31529;51.158;7.354;2023-05-16T00:12:18;42.31;38.35;60.54;;
45246;Laerm;31529;51.158;7.354;2023-05-16T00:12:49;62.04;40.11;74.57;;
45246;Laerm;31529;51.158;7.354;2023-05-16T00:13:21;44.89;38.77;51.55;;
45246;Laerm;31529;51.158;7.354;2023-05-16T00:13:55;44.28;38.67;55.34;;
45246;Laerm;31529;51.158;7.354;2023-05-16T00:14:27;40.71;36.50;52.51;;
45246;Laerm;31529;51.158;7.354;2023-05-16T00:14:58;39.83;36.24;54.97;;
45246;Laerm;31529;51.158;7.354;2023-05-16T00:15:29;43.72;38.51;56.07;;
45246;Laerm;31529;51.158;7.354;2023-05-16T00:16:00;41.36;36.24;48.25;;
45246;Laerm;31529;51.158;7.354;2023-05-16T00:16:32;39.90;35.96;58.67;;
45246;Laerm;31529;51.158;7.354;2023-05-16T00:17:03;63.73;35.66;80.01;;
45246;Laerm;31529;51.158;7.354;2023-05-16T00:17:41;65.55;36.75;82.86;;
45246;Laerm;31529;51.158;7.354;2023-05-16T00:18:17;45.81;37.82;60.52;;
45246;Laerm;31529;51.158;7.354;2023-05-16T00:18:49;43.03;37.62;55.61;;
45246;Laerm;31529;51.158;7.354;2023-05-16T00:19:20;45.25;41.83;49.74;;
45246;Laerm;31529;51.158;7.354;2023-05-16T00:19:55;42.88;38.82;55.09;;
45246;Laerm;31529;51.158;7.354;2023-05-16T00:20:28;67.91;38.35;86.09;;
45246;Laerm;31529;51.158;7.354;2023-05-16T00:20:59;64.80;37.82;82.35;;
45246;Laerm;31529;51.158;7.354;2023-05-16T00:21:31;40.70;37.21;56.64;;
45246;Laerm;31529;51.158;7.354;2023-05-16T00:22:02;42.33;37.28;54.97;;
45246;Laerm;31529;51.158;7.354;2023-05-16T00:22:34;41.92;37.62;50.00;;
45246;Laerm;31529;51.158;7.354;2023-05-16T00:23:05;40.28;35.96;51.29;;
45246;Laerm;31529;51.158;7.354;2023-05-16T00:23:36;40.15;34.99;55.55;;
45246;Laerm;31529;51.158;7.354;2023-05-16T00:24:08;39.03;34.99;52.07;;
45246;Laerm;31529;51.158;7.354;2023-05-16T00:24:39;38.99;34.61;56.32;;
45246;Laerm;31529;51.158;7.354;2023-05-16T00:25:10;38.94;34.20;49.36;;
45246;Laerm;31529;51.158;7.354;2023-05-16T00:25:41;40.44;36.40;53.99;;
45246;Laerm;31529;51.158;7.354;2023-05-16T00:26:13;39.96;35.96;49.17;;
45246;Laerm;31529;51.158;7.354;2023-05-16T00:26:44;39.25;35.66;45.75;;
45246;Laerm;31529;51.158;7.354;2023-05-16T00:27:15;38.88;34.20;51.38;;
45246;Laerm;31529;51.158;7.354;2023-05-16T00:27:46;41.03;37.42;45.17;;
45246;Laerm;31529;51.158;7.354;2023-05-16T00:28:18;38.82;34.99;41.78;;
45246;Laerm;31529;51.158;7.354;2023-05-16T00:28:49;41.58;36.24;46.55;;
45246;Laerm;31529;51.158;7.354;2023-05-16T00:29:20;45.71;39.25;64.00;;
45246;Laerm;31529;51.158;7.354;2023-05-16T00:29:51;41.60;36.99;46.10;;
45246;Laerm;31529;51.158;7.354;2023-05-16T00:30:22;47.42;37.62;52.33;;
45246;Laerm;31529;51.158;7.354;2023-05-16T00:30:53;43.92;38.97;52.66;;
45246;Laerm;31529;51.158;7.354;2023-05-16T00:31:24;41.97;38.18;46.21;;
45246;Laerm;31529;51.158;7.354;2023-05-16T00:31:56;40.79;34.20;45.50;;
45246;Laerm;31529;51.158;7.354;2023-05-16T00:32:27;40.59;37.21;44.77;;
45246;Laerm;31529;51.158;7.354;2023-05-16T00:32:58;40.41;37.62;44.95;;
45246;Laerm;31529;51.158;7.354;2023-05-16T00:33:29;39.94;35.96;43.44;;
45246;Laerm;31529;51.158;7.354;2023-05-16T00:34:00;39.45;35.66;42.12;;
45246;Laerm;31529;51.158;7.354;2023-05-16T00:34:31;40.01;35.66;45.41;;
45246;Laerm;31529;51.158;7.354;2023-05-16T00:35:02;39.38;35.66;43.49;;
45246;Laerm;31529;51.158;7.354;2023-05-16T00:35:34;39.63;34.20;43.06;;
45246;Laerm;31529;51.158;7.354;2023-05-16T00:36:05;38.17;33.74;43.49;;
45246;Laerm;31529;51.158;7.354;2023-05-16T00:36:36;38.26;32.65;43.88;;
45246;Laerm;31529;51.158;7.354;2023-05-16T00:37:07;38.46;32.65;43.12;;
45246;Laerm;31529;51.158;7.354;2023-05-16T00:37:38;42.63;35.66;46.94;;
45246;Laerm;31529;51.158;7.354;2023-05-16T00:38:09;63.63;41.91;76.15;;
45246;Laerm;31529;51.158;7.354;2023-05-16T00:38:40;40.84;35.66;45.72;;
45246;Laerm;31529;51.158;7.354;2023-05-16T00:39:12;42.24;35.34;48.20;;
45246;Laerm;31529;51.158;7.354;2023-05-16T00:39:43;38.87;34.20;47.36;;
45246;Laerm;31529;51.158;7.354;2023-05-16T00:40:14;42.26;37.42;47.06;;
45246;Laerm;31529;51.158;7.354;2023-05-16T00:40:45;43.85;39.17;48.75;;
45246;Laerm;31529;51.158;7.354;2023-05-16T00:41:17;44.01;39.11;48.56;;
45246;Laerm;31529;51.158;7.354;2023-05-16T00:41:48;39.48;36.24;44.88;;
45246;Laerm;31529;51.158;7.354;2023-05-16T00:42:19;38.99;35.34;55.54;;
45246;Laerm;31529;51.158;7.354;2023-05-16T00:42:51;40.22;35.34;47.26;;
45246;Laerm;31529;51.158;7.354;2023-05-16T00:43:22;43.35;40.33;51.74;;
45246;Laerm;31529;51.158;7.354;2023-05-16T00:43:53;43.87;40.83;53.28;;
45246;Laerm;31529;51.158;7.354;2023-05-16T00:44:24;43.37;38.35;51.43;;
45246;Laerm;31529;51.158;7.354;2023-05-16T00:44:56;40.97;38.18;45.78;;
45246;Laerm;31529;51.158;7.354;2023-05-16T00:45:27;41.74;38.00;51.56;;
45246;Laerm;31529;51.158;7.354;2023-05-16T00:45:58;40.53;36.50;49.08;;
45246;Laerm;31529;51.158;7.354;2023-05-16T00:46:30;40.88;36.50;54.42;;
45246;Laerm;31529;51.158;7.354;2023-05-16T00:47:01;39.81;35.66;50.77;;
45246;Laerm;31529;51.158;7.354;2023-05-16T00:47:34;39.32;34.99;47.91;;
45246;Laerm;31529;51.158;7.354;2023-05-16T00:48:06;39.18;34.99;46.40;;
45246;Laerm;31529;51.158;7.354;2023-05-16T00:48:38;41.13;36.75;46.65;;
45246;Laerm;31529;51.158;7.354;2023-05-16T00:49:10;40.88;37.62;50.84;;
45246;Laerm;31529;51.158;7.354;2023-05-16T00:49:41;39.21;35.61;47.27;;
45246;Laerm;31529;51.158;7.354;2023-05-16T00:50:13;39.37;35.34;49.97;;
45246;Laerm;31529;51.158;7.354;2023-05-16T00:50:44;40.37;36.24;46.02;;
45246;Laerm;31529;51.158;7.354;2023-05-16T00:51:16;41.84;37.07;51.92;;
45246;Laerm;31529;51.158;7.354;2023-05-16T00:51:47;42.86;37.42;50.69;;
45246;Laerm;31529;51.158;7.354;2023-05-16T00:52:18;39.58;36.50;46.92;;
45246;Laerm;31529;51.158;7.354;2023-05-16T00:52:49;41.38;37.62;50.91;;
45246;Laerm;31529;51.158;7.354;2023-05-16T00:53:22;41.70;38.00;49.46;;
45246;Laerm;31529;51.158;7.354;2023-05-16T00:53:55;64.01;40.33;78.28;;
45246;Laerm;31529;51.158;7.354;2023-05-16T00:54:28;41.43;36.75;52.59;;
45246;Laerm;31529;51.158;7.354;2023-05-16T00:54:59;39.17;35.34;47.72;;
45246;Laerm;31529;51.158;7.354;2023-05-16T00:55:31;38.92;34.61;45.41;;
45246;Laerm;31529;51.158;7.354;2023-05-16T00:56:04;39.66;34.20;49.68;;
45246;Laerm;31529;51.158;7.354;2023-05-16T00:56:36;41.23;35.66;48.98;;
45246;Laerm;31529;51.158;7.354;2023-05-16T00:57:07;40.16;36.99;52.18;;
45246;Laerm;31529;51.158;7.354;2023-05-16T00:57:39;40.52;35.66;45.75;;
45246;Laerm;31529;51.158;7.354;2023-05-16T00:58:11;38.63;34.20;43.93;;
45246;Laerm;31529;51.158;7.354;2023-05-16T00:58:43;39.29;35.66;50.58;;
45246;Laerm;31529;51.158;7.354;2023-05-16T00:59:14;38.73;34.20;46.89;;
45246;Laerm;31529;51.158;7.354;2023-05-16T00:59:46;44.13;35.66;54.30;;
45246;Laerm;31529;51.158;7.354;2023-05-16T01:00:17;68.00;41.91;81.08;;
45246;Laerm;31529;51.158;7.354;2023-05-16T01:00:49;45.51;39.51;52.81;;
45246;Laerm;31529;51.158;7.354;2023-05-16T01:01:22;73.46;42.26;89.47;;
45246;Laerm;31529;51.158;7.354;2023-05-16T01:01:54;43.10;37.62;57.47;;
45246;Laerm;31529;51.158;7.354;2023-05-16T01:02:27;42.16;38.35;60.55;;
45246;Laerm;31529;51.158;7.354;2023-05-16T01:02:59;39.70;34.61;48.51;;
45246;Laerm;31529;51.158;7.354;2023-05-16T01:03:30;40.01;36.75;46.68;;
45246;Laerm;31529;51.158;7.354;2023-05-16T01:04:02;64.01;41.36;75.93;;
45246;Laerm;31529;51.158;7.354;2023-05-16T01:04:33;43.01;40.22;47.78;;
45246;Laerm;31529;51.158;7.354;2023-05-16T01:05:05;39.05;31.98;44.99;;
45246;Laerm;31529;51.158;7.354;2023-05-16T01:05:38;39.17;35.34;44.88;;
45246;Laerm;31529;51.158;7.354;2023-05-16T01:06:09;39.77;35.96;53.01;;
45246;Laerm;31529;51.158;7.354;2023-05-16T01:06:42;65.23;37.21;79.43;;
45246;Laerm;31529;51.158;7.354;2023-05-16T01:07:14;45.28;36.50;57.34;;
45246;Laerm;31529;51.158;7.354;2023-05-16T01:07:45;40.38;36.50;54.55;;
45246;Laerm;31529;51.158;7.354;2023-05-16T01:08:16;41.14;36.99;52.68;;
45246;Laerm;31529;51.158;7.354;2023-05-16T01:08:47;46.29;40.22;51.48;;
45246;Laerm;31529;51.158;7.354;2023-05-16T01:09:18;41.50;36.75;53.63;;
45246;Laerm;31529;51.158;7.354;2023-05-16T01:09:49;40.21;35.34;58.46;;
45246;Laerm;31529;51.158;7.354;2023-05-16T01:10:20;40.68;37.42;53.27;;
45246;Laerm;31529;51.158;7.354;2023-05-16T01:10:58;42.12;38.00;45.78;;
45246;Laerm;31529;51.158;7.354;2023-05-16T01:11:37;41.83;36.99;51.22;;
45246;Laerm;31529;51.158;7.354;2023-05-16T01:12:36;41.01;35.34;59.92;;
45246;Laerm;31529;51.158;7.354;2023-05-16T01:13:18;41.19;34.20;55.03;;
45246;Laerm;31529;51.158;7.354;2023-05-16T01:14:23;40.51;37.21;59.98;;
45246;Laerm;31529;51.158;7.354;2023-05-16T01:15:04;42.35;38.00;56.75;;
45246;Laerm;31529;51.158;7.354;2023-05-16T01:15:43;40.73;36.99;55.10;;
45246;Laerm;31529;51.158;7.354;2023-05-16T01:16:22;41.30;37.21;51.97;;
45246;Laerm;31529;51.158;7.354;2023-05-16T01:17:06;45.02;38.82;57.49;;
45246;Laerm;31529;51.158;7.354;2023-05-16T01:18:40;40.77;36.24;61.96;;
45246;Laerm;31529;51.158;7.354;2023-05-16T01:19:27;40.66;36.75;59.66;;
45246;Laerm;31529;51.158;7.354;2023-05-16T01:20:29;42.81;36.50;67.13;;
45246;Laerm;31529;51.158;7.354;2023-05-16T01:21:11;60.71;39.11;77.32;;
45246;Laerm;31529;51.158;7.354;2023-05-16T01:21:54;47.41;38.00;63.05;;
45246;Laerm;31529;51.158;7.354;2023-05-16T01:23:20;45.88;39.51;68.47;;
45246;Laerm;31529;51.158;7.354;2023-05-16T01:24:22;64.69;39.76;79.83;;
45246;Laerm;31529;51.158;7.354;2023-05-16T01:26:22;43.39;38.67;67.06;;
45246;Laerm;31529;51.158;7.354;2023-05-16T01:26:54;42.06;38.18;58.60;;
45246;Laerm;31529;51.158;7.354;2023-05-16T01:27:26;41.37;37.47;59.08;;
45246;Laerm;31529;51.158;7.354;2023-05-16T01:27:58;42.49;39.11;55.21;;
45246;Laerm;31529;51.158;7.354;2023-05-16T01:28:29;61.32;44.49;74.13;;
45246;Laerm;31529;51.158;7.354;2023-05-16T01:29:00;64.99;40.53;77.85;;
45246;Laerm;31529;51.158;7.354;2023-05-16T01:29:31;42.93;39.88;53.68;;
45246;Laerm;31529;51.158;7.354;2023-05-16T01:30:16;44.27;39.51;64.23;;
45246;Laerm;31529;51.158;7.354;2023-05-16T01:30:49;44.92;40.92;60.58;;
45246;Laerm;31529;51.158;7.354;2023-05-16T01:31:22;44.47;39.76;64.32;;
45246;Laerm;31529;51.158;7.354;2023-05-16T01:31:53;41.86;38.67;54.54;;
45246;Laerm;31529;51.158;7.354;2023-05-16T01:32:24;45.49;40.33;64.01;;
45246;Laerm;31529;51.158;7.354;2023-05-16T01:32:55;42.97;39.11;57.61;;
45246;Laerm;31529;51.158;7.354;2023-05-16T01:33:27;42.97;38.67;64.11;;
45246;Laerm;31529;51.158;7.354;2023-05-16T01:33:58;41.71;38.51;58.51;;
45246;Laerm;31529;51.158;7.354;2023-05-16T01:34:29;43.03;39.25;58.91;;
45246;Laerm;31529;51.158;7.354;2023-05-16T01:35:03;45.65;41.10;59.89;;
45246;Laerm;31529;51.158;7.354;2023-05-16T01:35:48;44.88;40.92;64.69;;
45246;Laerm;31529;51.158;7.354;2023-05-16T01:36:50;66.74;44.77;81.41;;
45246;Laerm;31529;51.158;7.354;2023-05-16T01:37:34;45.16;41.52;63.20;;
45246;Laerm;31529;51.158;7.354;2023-05-16T01:38:15;43.73;40.53;61.43;;
45246;Laerm;31529;51.158;7.354;2023-05-16T01:39:43;43.94;39.76;61.82;;
45246;Laerm;31529;51.158;7.354;2023-05-16T01:40:21;45.82;41.36;66.21;;
45246;Laerm;31529;51.158;7.354;2023-05-16T01:41:20;45.69;39.11;57.87;;
45246;Laerm;31529;51.158;7.354;2023-05-16T01:42:14;43.58;38.97;58.15;;
45246;Laerm;31529;51.158;7.354;2023-05-16T01:42:45;43.06;38.51;58.37;;
45246;Laerm;31529;51.158;7.354;2023-05-16T01:43:43;44.06;38.82;64.80;;
45246;Laerm;31529;51.158;7.354;2023-05-16T01:44:32;44.47;39.25;64.78;;
45246;Laerm;31529;51.158;7.354;2023-05-16T01:45:10;46.38;41.19;69.12;;
45246;Laerm;31529;51.158;7.354;2023-05-16T01:45:50;46.15;40.53;66.13;;
45246;Laerm;31529;51.158;7.354;2023-05-16T01:46:26;45.67;40.43;68.88;;
45246;Laerm;31529;51.158;7.354;2023-05-16T01:47:01;46.93;40.53;72.78;;
45246;Laerm;31529;51.158;7.354;2023-05-16T01:47:35;45.77;40.53;67.73;;
45246;Laerm;31529;51.158;7.354;2023-05-16T01:48:15;45.18;41.10;66.73;;
45246;Laerm;31529;51.158;7.354;2023-05-16T01:48:53;49.56;41.10;75.87;;
45246;Laerm;31529;51.158;7.354;2023-05-16T01:50:42;48.27;42.77;69.19;;
45246;Laerm;31529;51.158;7.354;2023-05-16T01:51:15;68.14;45.37;82.37;;
45246;Laerm;31529;51.158;7.354;2023-05-16T01:51:54;49.18;43.49;72.99;;
45246;Laerm;31529;51.158;7.354;2023-05-16T01:52:31;48.89;42.83;73.07;;
45246;Laerm;31529;51.158;7.354;2023-05-16T01:53:14;48.12;42.77;71.67;;
45246;Laerm;31529;51.158;7.354;2023-05-16T01:53:49;53.15;43.23;79.84;;
45246;Laerm;31529;51.158;7.354;2023-05-16T01:54:24;52.86;45.20;78.03;;
45246;Laerm;31529;51.158;7.354;2023-05-16T01:54:56;51.71;45.17;73.22;;
45246;Laerm;31529;51.158;7.354;2023-05-16T01:55:37;56.39;45.76;81.75;;
45246;Laerm;31529;51.158;7.354;2023-05-16T01:56:14;54.08;46.89;74.92;;
45246;Laerm;31529;51.158;7.354;2023-05-16T01:56:51;60.72;48.02;83.88;;
45246;Laerm;31529;51.158;7.354;2023-05-16T01:57:24;57.65;47.64;84.49;;
45246;Laerm;31529;51.158;7.354;2023-05-16T01:57:58;62.95;47.78;85.20;;
45246;Laerm;31529;51.158;7.354;2023-05-16T01:58:32;61.09;47.60;90.12;;
45246;Laerm;31529;51.158;7.354;2023-05-16T01:59:05;57.98;47.40;82.36;;
45246;Laerm;31529;51.158;7.354;2023-05-16T01:59:38;52.76;48.06;73.77;;
45246;Laerm;31529;51.158;7.354;2023-05-16T02:00:10;55.15;47.38;74.96;;
45246;Laerm;31529;51.158;7.354;2023-05-16T02:00:41;60.89;47.50;86.45;;
45246;Laerm;31529;51.158;7.354;2023-05-16T02:01:13;60.83;48.37;86.16;;
45246;Laerm;31529;51.158;7.354;2023-05-16T02:01:44;56.09;47.98;72.64;;
45246;Laerm;31529;51.158;7.354;2023-05-16T02:02:19;61.51;47.56;78.28;;
45246;Laerm;31529;51.158;7.354;2023-05-16T02:02:50;53.64;46.65;75.75;;
45246;Laerm;31529;51.158;7.354;2023-05-16T02:03:21;54.33;47.60;77.65;;
45246;Laerm;31529;51.158;7.354;2023-05-16T02:03:52;59.04;46.87;82.93;;
45246;Laerm;31529;51.158;7.354;2023-05-16T02:04:24;63.72;47.48;92.29;;
45246;Laerm;31529;51.158;7.354;2023-05-16T02:04:55;53.89;46.48;76.73;;
45246;Laerm;31529;51.158;7.354;2023-05-16T02:05:26;54.84;47.56;74.16;;
45246;Laerm;31529;51.158;7.354;2023-05-16T02:06:00;51.64;45.66;74.21;;
45246;Laerm;31529;51.158;7.354;2023-05-16T02:06:31;51.87;44.88;77.50;;
45246;Laerm;31529;51.158;7.354;2023-05-16T02:07:02;48.61;45.44;65.39;;
45246;Laerm;31529;51.158;7.354;2023-05-16T02:07:34;54.45;45.31;79.41;;
45246;Laerm;31529;51.158;7.354;2023-05-16T02:08:05;52.26;45.99;74.33;;
45246;Laerm;31529;51.158;7.354;2023-05-16T02:08:36;50.66;45.03;71.42;;
45246;Laerm;31529;51.158;7.354;2023-05-16T02:09:07;52.13;45.06;77.56;;
45246;Laerm;31529;51.158;7.354;2023-05-16T02:09:39;51.77;44.07;72.24;;
45246;Laerm;31529;51.158;7.354;2023-05-16T02:10:11;49.75;44.92;66.89;;
45246;Laerm;31529;51.158;7.354;2023-05-16T02:10:42;66.51;45.13;80.46;;
45246;Laerm;31529;51.158;7.354;2023-05-16T02:11:13;52.39;45.66;75.24;;
45246;Laerm;31529;51.158;7.354;2023-05-16T02:11:44;52.20;44.61;77.84;;
45246;Laerm;31529;51.158;7.354;2023-05-16T02:12:16;57.54;44.92;84.10;;
45246;Laerm;31529;51.158;7.354;2023-05-16T02:12:49;55.80;45.81;78.55;;
45246;Laerm;31529;51.158;7.354;2023-05-16T02:13:20;56.73;46.40;81.54;;
45246;Laerm;31529;51.158;7.354;2023-05-16T02:13:52;58.35;48.79;80.36;;
45246;Laerm;31529;51.158;7.354;2023-05-16T02:14:23;64.14;49.15;92.49;;
45246;Laerm;31529;51.158;7.354;2023-05-16T02:14:55;68.14;48.78;81.72;;
45246;Laerm;31529;51.158;7.354;2023-05-16T02:15:26;58.26;48.98;82.08;;
45246;Laerm;31529;51.158;7.354;2023-05-16T02:15:57;56.64;48.50;78.89;;
45246;Laerm;31529;51.158;7.354;2023-05-16T02:16:29;54.42;47.23;77.67;;
45246;Laerm;31529;51.158;7.354;2023-05-16T02:17:01;56.18;47.56;82.50;;
45246;Laerm;31529;51.158;7.354;2023-05-16T02:17:32;58.95;47.21;84.20;;
45246;Laerm;31529;51.158;7.354;2023-05-16T02:18:03;64.89;49.36;84.91;;
45246;Laerm;31529;51.158;7.354;2023-05-16T02:18:34;65.16;49.77;91.77;;
45246;Laerm;31529;51.158;7.354;2023-05-16T02:19:06;65.58;50.97;83.81;;
45246;Laerm;31529;51.158;7.354;2023-05-16T02:19:37;67.95;51.66;90.90;;
45246;Laerm;31529;51.158;7.354;2023-05-16T02:20:08;58.82;49.18;80.89;;
45246;Laerm;31529;51.158;7.354;2023-05-16T02:20:40;58.10;48.50;85.23;;
45246;Laerm;31529;51.158;7.354;2023-05-16T02:21:11;64.50;46.21;78.05;;
45246;Laerm;31529;51.158;7.354;2023-05-16T02:21:42;51.78;46.45;70.10;;
45246;Laerm;31529;51.158;7.354;2023-05-16T02:22:13;52.77;47.60;73.39;;
45246;Laerm;31529;51.158;7.354;2023-05-16T02:22:44;55.46;47.76;75.47;;
45246;Laerm;31529;51.158;7.354;2023-05-16T02:23:17;56.65;46.16;84.45;;
45246;Laerm;31529;51.158;7.354;2023-05-16T02:23:48;55.58;45.84;81.12;;
45246;Laerm;31529;51.158;7.354;2023-05-16T02:24:19;56.82;46.45;79.25;;
45246;Laerm;31529;51.158;7.354;2023-05-16T02:24:50;53.70;47.54;74.07;;
45246;Laerm;31529;51.158;7.354;2023-05-16T02:25:22;54.02;46.16;80.56;;
45246;Laerm;31529;51.158;7.354;2023-05-16T02:25:53;56.37;45.63;82.61;;
45246;Laerm;31529;51.158;7.354;2023-05-16T02:26:24;55.70;46.58;79.72;;
45246;Laerm;31529;51.158;7.354;2023-05-16T02:26:55;67.20;47.21;81.00;;
45246;Laerm;31529;51.158;7.354;2023-05-16T02:27:27;64.50;46.29;78.36;;
45246;Laerm;31529;51.158;7.354;2023-05-16T02:27:58;58.26;45.10;80.92;;
45246;Laerm;31529;51.158;7.354;2023-05-16T02:28:29;53.16;44.92;78.00;;
45246;Laerm;31529;51.158;7.354;2023-05-16T02:29:01;64.93;48.66;77.52;;
45246;Laerm;31529;51.158;7.354;2023-05-16T02:29:32;51.00;45.03;73.67;;
45246;Laerm;31529;51.158;7.354;2023-05-16T02:30:03;52.78;44.99;73.26;;
45246;Laerm;31529;51.158;7.354;2023-05-16T02:30:35;50.44;45.44;69.93;;
45246;Laerm;31529;51.158;7.354;2023-05-16T02:31:06;52.85;46.02;71.71;;
45246;Laerm;31529;51.158;7.354;2023-05-16T02:31:37;54.50;45.50;77.89;;
45246;Laerm;31529;51.158;7.354;2023-05-16T02:32:08;49.85;45.72;66.47;;
45246;Laerm;31529;51.158;7.354;2023-05-16T02:32:40;51.92;45.60;70.34;;
45246;Laerm;31529;51.158;7.354;2023-05-16T02:33:14;53.81;45.66;76.84;;
45246;Laerm;31529;51.158;7.354;2023-05-16T02:33:45;67.78;46.53;80.78;;
45246;Laerm;31529;51.158;7.354;2023-05-16T02:34:16;56.37;46.07;71.96;;
45246;Laerm;31529;51.158;7.354;2023-05-16T02:34:48;66.46;50.50;80.41;;
45246;Laerm;31529;51.158;7.354;2023-05-16T02:35:19;66.06;48.28;79.72;;
45246;Laerm;31529;51.158;7.354;2023-05-16T02:35:50;66.52;48.42;83.99;;
45246;Laerm;31529;51.158;7.354;2023-05-16T02:36:21;68.16;47.98;78.72;;
45246;Laerm;31529;51.158;7.354;2023-05-16T02:36:52;52.45;45.78;75.64;;
45246;Laerm;31529;51.158;7.354;2023-05-16T02:37:23;49.68;44.73;70.55;;
45246;Laerm;31529;51.158;7.354;2023-05-16T02:37:55;52.18;45.78;73.26;;
45246;Laerm;31529;51.158;7.354;2023-05-16T02:38:26;53.33;45.50;76.67;;
45246;Laerm;31529;51.158;7.354;2023-05-16T02:38:58;62.63;46.40;81.20;;
45246;Laerm;31529;51.158;7.354;2023-05-16T02:39:29;53.49;44.88;70.89;;
45246;Laerm;31529;51.158;7.354;2023-05-16T02:40:02;66.56;47.17;83.10;;
45246;Laerm;31529;51.158;7.354;2023-05-16T02:40:35;50.58;45.90;67.48;;
45246;Laerm;31529;51.158;7.354;2023-05-16T02:41:06;63.57;46.05;77.65;;
45246;Laerm;31529;51.158;7.354;2023-05-16T02:41:37;54.55;47.54;78.02;;
45246;Laerm;31529;51.158;7.354;2023-05-16T02:42:10;69.71;46.99;80.59;;
45246;Laerm;31529;51.158;7.354;2023-05-16T02:42:41;65.19;46.96;76.20;;
45246;Laerm;31529;51.158;7.354;2023-05-16T02:43:12;52.87;45.63;76.75;;
45246;Laerm;31529;51.158;7.354;2023-05-16T02:43:43;67.37;48.20;81.68;;
45246;Laerm;31529;51.158;7.354;2023-05-16T02:44:14;63.79;46.45;78.11;;
45246;Laerm;31529;51.158;7.354;2023-05-16T02:44:45;65.93;48.53;77.00;;
45246;Laerm;31529;51.158;7.354;2023-05-16T02:45:17;55.43;46.68;80.26;;
45246;Laerm;31529;51.158;7.354;2023-05-16T02:45:48;50.60;46.75;64.06;;
45246;Laerm;31529;51.158;7.354;2023-05-16T02:46:31;51.36;45.66;76.50;;
45246;Laerm;31529;51.158;7.354;2023-05-16T02:47:02;50.62;44.53;75.63;;
45246;Laerm;31529;51.158;7.354;2023-05-16T02:47:33;52.10;45.06;78.65;;
45246;Laerm;31529;51.158;7.354;2023-05-16T02:48:04;63.46;44.95;77.10;;
45246;Laerm;31529;51.158;7.354;2023-05-16T02:48:36;53.50;45.13;79.09;;
45246;Laerm;31529;51.158;7.354;2023-05-16T02:49:07;62.81;45.57;76.12;;
45246;Laerm;31529;51.158;7.354;2023-05-16T02:49:38;64.11;46.45;78.77;;
45246;Laerm;31529;51.158;7.354;2023-05-16T02:50:09;50.86;44.02;72.09;;
45246;Laerm;31529;51.158;7.354;2023-05-16T02:50:40;49.13;44.84;67.30;;
45246;Laerm;31529;51.158;7.354;2023-05-16T02:51:12;61.35;44.81;78.49;;
45246;Laerm;31529;51.158;7.354;2023-05-16T02:51:43;66.54;48.42;79.32;;
45246;Laerm;31529;51.158;7.354;2023-05-16T02:52:14;48.74;44.41;68.31;;
45246;Laerm;31529;51.158;7.354;2023-05-16T02:52:46;67.41;44.45;78.60;;
45246;Laerm;31529;51.158;7.354;2023-05-16T02:53:17;55.52;44.88;69.42;;
45246;Laerm;31529;51.158;7.354;2023-05-16T02:53:48;48.01;43.39;71.62;;
45246;Laerm;31529;51.158;7.354;2023-05-16T02:54:19;63.46;43.34;78.79;;
45246;Laerm;31529;51.158;7.354;2023-05-16T02:54:51;46.99;43.12;64.46;;
45246;Laerm;31529;51.158;7.354;2023-05-16T02:55:22;69.68;44.37;80.75;;
45246;Laerm;31529;51.158;7.354;2023-05-16T02:55:53;52.10;45.53;77.37;;
45246;Laerm;31529;51.158;7.354;2023-05-16T02:56:24;71.30;52.34;82.27;;
45246;Laerm;31529;51.158;7.354;2023-05-16T02:56:56;65.83;44.45;75.31;;
45246;Laerm;31529;51.158;7.354;2023-05-16T02:57:27;45.91;42.95;64.26;;
45246;Laerm;31529;51.158;7.354;2023-05-16T02:57:58;47.80;43.39;64.59;;
45246;Laerm;31529;51.158;7.354;2023-05-16T02:58:29;51.06;46.40;63.44;;
45246;Laerm;31529;51.158;7.354;2023-05-16T02:59:00;65.80;44.24;79.97;;
45246;Laerm;31529;51.158;7.354;2023-05-16T02:59:31;46.85;42.19;71.75;;
45246;Laerm;31529;51.158;7.354;2023-05-16T03:00:03;45.64;43.01;67.02;;
45246;Laerm;31529;51.158;7.354;2023-05-16T03:00:35;53.73;43.18;72.44;;
45246;Laerm;31529;51.158;7.354;2023-05-16T03:01:07;66.91;46.27;79.15;;
45246;Laerm;31529;51.158;7.354;2023-05-16T03:01:38;68.54;48.04;81.21;;
45246;Laerm;31529;51.158;7.354;2023-05-16T03:02:10;51.65;43.64;65.86;;
45246;Laerm;31529;51.158;7.354;2023-05-16T03:02:41;46.79;43.79;65.10;;
45246;Laerm;31529;51.158;7.354;2023-05-16T03:03:12;64.76;46.29;77.95;;
45246;Laerm;31529;51.158;7.354;2023-05-16T03:03:43;66.88;46.10;78.28;;
45246;Laerm;31529;51.158;7.354;2023-05-16T03:04:14;64.69;44.61;78.46;;
45246;Laerm;31529;51.158;7.354;2023-05-16T03:04:45;51.47;44.65;65.17;;
45246;Laerm;31529;51.158;7.354;2023-05-16T03:05:16;68.93;47.58;80.33;;
45246;Laerm;31529;51.158;7.354;2023-05-16T03:05:48;65.78;45.50;75.90;;
45246;Laerm;31529;51.158;7.354;2023-05-16T03:06:19;50.91;43.88;62.71;;
45246;Laerm;31529;51.158;7.354;2023-05-16T03:06:50;49.01;43.64;71.01;;
45246;Laerm;31529;51.158;7.354;2023-05-16T03:07:22;65.29;44.20;78.71;;
45246;Laerm;31529;51.158;7.354;2023-05-16T03:07:53;64.80;43.79;78.14;;
45246;Laerm;31529;51.158;7.354;2023-05-16T03:08:24;64.56;44.24;78.11;;
45246;Laerm;31529;51.158;7.354;2023-05-16T03:08:55;64.48;45.69;78.94;;
45246;Laerm;31529;51.158;7.354;2023-05-16T03:09:26;50.26;44.33;67.47;;
45246;Laerm;31529;51.158;7.354;2023-05-16T03:09:57;66.18;45.47;78.39;;
45246;Laerm;31529;51.158;7.354;2023-05-16T03:10:28;67.02;45.87;79.10;;